Time;durP1;ratioP1;P1;durP2;ratioP2;P2;SDS_P1;SDS_P2;PMS_P1;PMS_P2;Temp;Humidity;BMP_temperature;BMP_pressure;BME280_temperature;BME280_humidity;BME280_pressure;Samples;Min_cycle;Max_cycle;Signal;HPM_P1;HPM_P2
2023/03/25 00:00:39;;;;;;;;;;;;;;;18.65;44.15;99464.78;5357120;32;46189;-76
2023/03/25 00:03:41;;;;;;;;;;;;;;;18.99;42.98;99469.81;5350507;32;34854;-65
2023/03/25 00:06:43;;;;;;;;;;;;;;;18.94;42.66;99467.59;5359992;32;36911;-75
2023/03/25 00:09:46;;;;;;;;;;;;;;;18.81;42.78;99474.97;5359396;32;34708;-64
2023/03/25 00:12:48;;;;;;;;;;;;;;;18.71;42.94;99475.91;5373172;32;35052;-71
2023/03/25 00:15:52;;;;;;;;;;;;;;;18.84;41.74;99474.69;5354713;32;34811;-76
2023/03/25 00:18:58;;;;;;;;;;;;;;;18.22;42.84;99464.97;5370445;32;36363;-78
2023/03/25 00:22:00;;;;;;;;;;;;;;;18.17;42.93;99463.69;5359052;32;34806;-77
2023/03/25 00:25:02;;;;;;;;;;;;;;;17.62;43.62;99469.13;5354869;32;35694;-76
2023/03/25 00:28:04;;;;;;;;;;;;;;;18.44;41.91;99468.47;5374713;32;35152;-65
2023/03/25 00:31:08;;;;;;;;;;;;;;;17.89;43.17;99476.63;5355042;32;35970;-64
2023/03/25 00:34:13;;;;;;;;;;;;;;;17.95;43.07;99481.44;5373462;32;44849;-64
2023/03/25 00:37:16;;;;;;;;;;;;;;;18.08;42.75;99455.50;5356420;32;35622;-64
2023/03/25 00:40:18;;;;;;;;;;;;;;;17.57;44.08;99473.97;5365494;32;34910;-76
2023/03/25 00:43:20;;;;;;;;;;;;;;;18.07;43.25;99480.41;5359553;32;35712;-76
2023/03/25 00:46:22;;;;;;;;;;;;;;;18.01;43.54;99475.59;5354136;32;35394;-76
2023/03/25 00:49:27;;;;;;;;;;;;;;;18.14;43.30;99478.91;5374626;32;34789;-66
2023/03/25 00:52:29;;;;;;;;;;;;;;;18.24;43.15;99470.16;5355502;32;35071;-64
2023/03/25 00:55:31;;;;;;;;;;;;;;;17.63;44.83;99475.28;5373402;32;34668;-75
2023/03/25 00:58:33;;;;;;;;;;;;;;;18.16;43.78;99478.78;5356978;32;34912;-75
2023/03/25 01:01:38;;;;;;;;;;;;;;;17.83;45.10;99472.66;5363564;32;35023;-76
2023/03/25 01:04:40;;;;;;;;;;;;;;;17.60;46.14;99482.53;5359699;32;45865;-75
2023/03/25 01:07:44;;;;;;;;;;;;;;;17.26;47.29;99479.16;5350449;32;34602;-78
2023/03/25 01:10:46;;;;;;;;;;;;;;;17.20;47.87;99487.59;5374222;32;34447;-76
2023/03/25 01:13:48;;;;;;;;;;;;;;;16.62;49.92;99489.56;5355268;32;34769;-64
2023/03/25 01:16:50;;;;;;;;;;;;;;;17.46;48.04;99458.09;5372066;32;34943;-76
2023/03/25 01:19:52;;;;;;;;;;;;;;;16.67;50.60;99475.91;5357887;32;34570;-64
2023/03/25 01:22:54;;;;;;;;;;;;;;;16.39;52.25;99482.53;5358770;32;35485;-66
2023/03/25 01:25:56;;;;;;;;;;;;;;;15.95;54.10;99482.31;5367272;32;35086;-76
2023/03/25 01:28:57;;;;;;;;;;;;;;;16.06;54.08;99489.47;5355885;32;36749;-76
2023/03/25 01:31:59;;;;;;;;;;;;;;;16.55;52.92;99498.97;5373480;32;35067;-76
2023/03/25 01:35:03;;;;;;;;;;;;;;;16.41;53.78;99493.84;5355886;32;34501;-65
2023/03/25 01:38:05;;;;;;;;;;;;;;;16.40;53.95;99477.09;5371501;32;35116;-75
2023/03/25 01:41:07;;;;;;;;;;;;;;;16.29;54.96;99498.28;5355482;32;35887;-64
2023/03/25 01:44:13;;;;;;;;;;;;;;;15.96;56.34;99510.50;5354198;32;47356;-64
2023/03/25 01:47:15;;;;;;;;;;;;;;;16.18;56.31;99507.09;5369773;32;35419;-78
2023/03/25 01:50:16;;;;;;;;;;;;;;;15.82;58.05;99504.56;5355752;32;34831;-64
2023/03/25 01:53:18;;;;;;;;;;;;;;;15.51;59.68;99511.22;5371309;32;35362;-66
2023/03/25 01:56:21;;;;;;;;;;;;;;;16.05;58.45;99514.28;5353133;32;35017;-66
2023/03/25 01:59:24;;;;;;;;;;;;;;;16.07;58.29;99504.41;5369345;32;35640;-66
2023/03/25 02:02:33;;;;;;;;;;;;;;;15.39;60.83;99519.13;5357134;32;35827;-65
2023/03/25 02:05:54;;;;;;;;;;;;;;;15.48;60.29;99522.06;5335337;32;35533;-75
2023/03/25 02:08:57;;;;;;;;;;;;;;;16.18;58.36;99525.62;5367800;32;35659;-63
2023/03/25 02:11:59;;;;;;;;;;;;;;;15.86;59.91;99529.88;5355179;32;34911;-66
2023/03/25 02:15:02;;;;;;;;;;;;;;;15.62;60.73;99533.34;5371924;32;34956;-77
2023/03/25 02:18:13;;;;;;;;;;;;;;;14.90;63.94;99537.66;5355487;32;34515;-75
2023/03/25 02:21:24;;;;;;;;;;;;;;;14.76;65.07;99528.06;5359286;32;47005;-75
2023/03/25 02:24:34;;;;;;;;;;;;;;;14.32;66.53;99523.16;5369662;32;37031;-64
2023/03/25 02:27:44;;;;;;;;;;;;;;;14.56;66.24;99531.25;5352111;32;36356;-64
2023/03/25 02:31:02;;;;;;;;;;;;;;;14.59;65.86;99521.28;5370075;32;44636;-66
2023/03/25 02:34:16;;;;;;;;;;;;;;;15.15;64.56;99516.44;5356677;32;34712;-64
2023/03/25 02:37:26;;;;;;;;;;;;;;;15.05;64.38;99518.03;5355794;32;34964;-77
2023/03/25 02:40:47;;;;;;;;;;;;;;;15.04;64.43;99524.31;5370929;32;34211;-64
2023/03/25 02:43:53;;;;;;;;;;;;;;;14.80;64.95;99508.34;5350365;32;34386;-65
2023/03/25 02:46:56;;;;;;;;;;;;;;;14.26;68.02;99499.78;5369627;32;34341;-66
2023/03/25 02:50:00;;;;;;;;;;;;;;;14.53;66.92;99519.06;5356108;32;34877;-76
2023/03/25 02:53:05;;;;;;;;;;;;;;;14.66;67.86;99507.63;5355304;32;35024;-64
2023/03/25 02:56:08;;;;;;;;;;;;;;;13.93;70.47;99508.19;5367959;32;37673;-64
2023/03/25 02:59:13;;;;;;;;;;;;;;;14.83;67.41;99509.97;5354991;32;45288;-63
2023/03/25 03:02:16;;;;;;;;;;;;;;;14.67;67.32;99522.53;5370666;32;34974;-64
2023/03/25 03:05:27;;;;;;;;;;;;;;;14.58;67.01;99510.81;5344767;32;35021;-64
2023/03/25 03:08:33;;;;;;;;;;;;;;;14.41;67.50;99522.50;5369725;32;34709;-65
2023/03/25 03:11:40;;;;;;;;;;;;;;;14.76;65.26;99504.25;5368314;32;35426;-76
2023/03/25 03:14:47;;;;;;;;;;;;;;;14.19;66.67;99519.66;5355008;32;47290;-65
2023/03/25 03:18:00;;;;;;;;;;;;;;;14.27;66.94;99522.63;5370735;32;34389;-65
2023/03/25 03:21:22;;;;;;;;;;;;;;;14.05;67.01;99523.22;5363963;32;35515;-64
2023/03/25 03:24:26;;;;;;;;;;;;;;;13.89;68.28;99517.25;5364748;32;35142;-64
2023/03/25 03:27:57;;;;;;;;;;;;;;;14.38;65.44;99524.53;5357632;32;35673;-75
2023/03/25 03:31:20;;;;;;;;;;;;;;;13.88;68.36;99528.78;5308439;32;36302;-75
2023/03/25 03:34:46;;;;;;;;;;;;;;;14.56;65.59;99521.50;5368649;32;34591;-75
2023/03/25 03:37:53;;;;;;;;;;;;;;;14.65;65.19;99540.31;5355515;32;35395;-75
2023/03/25 03:40:56;;;;;;;;;;;;;;;13.77;69.81;99538.25;5351212;32;35004;-65
2023/03/25 03:44:01;;;;;;;;;;;;;;;13.61;70.23;99523.53;5368279;32;35053;-64
2023/03/25 03:47:04;;;;;;;;;;;;;;;14.16;69.97;99540.97;5351347;32;36685;-76
2023/03/25 03:50:08;;;;;;;;;;;;;;;12.86;75.85;99546.72;5369952;32;35023;-63
2023/03/25 03:53:10;;;;;;;;;;;;;;;13.51;70.70;99547.88;5352698;32;44886;-76
2023/03/25 03:56:18;;;;;;;;;;;;;;;12.80;74.44;99566.41;5366696;32;35474;-66
2023/03/25 03:59:43;;;;;;;;;;;;;;;12.75;76.54;99579.00;5362205;32;34746;-64
2023/03/25 04:02:47;;;;;;;;;;;;;;;13.41;73.64;99569.69;5334955;32;47467;-77
2023/03/25 04:05:51;;;;;;;;;;;;;;;13.50;71.85;99574.37;5354648;32;34942;-64
2023/03/25 04:08:57;;;;;;;;;;;;;;;13.73;72.74;99581.66;5352677;32;34666;-65
2023/03/25 04:12:01;;;;;;;;;;;;;;;13.85;72.66;99577.38;5368788;32;35087;-77
2023/03/25 04:15:05;;;;;;;;;;;;;;;14.51;70.09;99584.44;5358688;32;36237;-76
2023/03/25 04:18:07;;;;;;;;;;;;;;;13.85;73.21;99582.66;5355911;32;36291;-66
2023/03/25 04:21:08;;;;;;;;;;;;;;;13.49;75.27;99592.00;5373949;32;44532;-66
2023/03/25 04:24:10;;;;;;;;;;;;;;;13.55;75.03;99593.41;5357067;32;34862;-65
2023/03/25 04:27:14;;;;;;;;;;;;;;;13.60;76.65;99595.75;5372904;32;34148;-77
2023/03/25 04:30:16;;;;;;;;;;;;;;;13.70;71.68;99587.13;5357514;32;34987;-76
2023/03/25 04:33:19;;;;;;;;;;;;;;;14.06;72.80;99604.19;5368369;32;34582;-75
2023/03/25 04:36:21;;;;;;;;;;;;;;;14.55;69.80;99601.75;5361527;32;35782;-64
2023/03/25 04:39:24;;;;;;;;;;;;;;;14.87;67.88;99611.94;5354390;32;35698;-77
2023/03/25 04:42:31;;;;;;;;;;;;;;;14.49;66.67;99599.56;5370187;32;35095;-64
2023/03/25 04:45:35;;;;;;;;;;;;;;;14.17;69.85;99609.63;5354636;32;35185;-76
2023/03/25 04:48:40;;;;;;;;;;;;;;;14.44;68.74;99614.84;5372428;32;35101;-66
2023/03/25 04:51:43;;;;;;;;;;;;;;;13.85;71.00;99613.50;5354778;32;45677;-65
2023/03/25 04:54:46;;;;;;;;;;;;;;;13.99;69.59;99613.47;5364691;32;35494;-75
2023/03/25 04:57:48;;;;;;;;;;;;;;;13.69;71.70;99619.75;5365754;32;35725;-75
2023/03/25 05:00:50;;;;;;;;;;;;;;;13.72;71.26;99622.22;5355359;32;35723;-65
2023/03/25 05:03:53;;;;;;;;;;;;;;;13.81;70.63;99620.78;5362990;32;35332;-65
2023/03/25 05:06:56;;;;;;;;;;;;;;;14.38;68.98;99628.47;5347660;32;35164;-78
2023/03/25 05:09:58;;;;;;;;;;;;;;;14.50;67.04;99627.69;5370520;32;35126;-76
2023/03/25 05:13:00;;;;;;;;;;;;;;;13.60;70.85;99630.94;5356271;32;35127;-65
2023/03/25 05:16:03;;;;;;;;;;;;;;;14.57;67.24;99636.06;5359754;32;35295;-66
2023/03/25 05:19:05;;;;;;;;;;;;;;;14.31;70.03;99648.34;5368066;32;35505;-75
2023/03/25 05:22:07;;;;;;;;;;;;;;;14.54;65.77;99645.03;5353787;32;34885;-76
2023/03/25 05:25:10;;;;;;;;;;;;;;;14.26;66.34;99651.28;5370389;32;45092;-76
2023/03/25 05:28:15;;;;;;;;;;;;;;;13.46;69.51;99658.19;5352721;32;35908;-64
2023/03/25 05:31:17;;;;;;;;;;;;;;;14.33;66.63;99649.91;5367969;32;36023;-66
2023/03/25 05:34:19;;;;;;;;;;;;;;;14.56;65.16;99652.88;5356389;32;36797;-64
2023/03/25 05:37:21;;;;;;;;;;;;;;;14.08;67.22;99655.12;5358521;32;34803;-76
2023/03/25 05:40:24;;;;;;;;;;;;;;;14.27;65.37;99652.13;5366559;32;35295;-65
2023/03/25 05:43:26;;;;;;;;;;;;;;;14.26;65.68;99653.06;5351069;32;35212;-64
2023/03/25 05:46:30;;;;;;;;;;;;;;;14.21;65.58;99644.59;5370632;32;35222;-64
2023/03/25 05:49:32;;;;;;;;;;;;;;;14.41;64.96;99632.69;5354239;32;35185;-75
2023/03/25 05:52:35;;;;;;;;;;;;;;;13.96;66.80;99650.63;5369278;32;32536;-66
2023/03/25 05:55:37;;;;;;;;;;;;;;;14.97;62.47;99654.50;5357366;32;34913;-76
2023/03/25 05:58:39;;;;;;;;;;;;;;;14.72;62.25;99650.03;5355888;32;46565;-77
2023/03/25 06:01:44;;;;;;;;;;;;;;;14.57;63.59;99660.69;5369637;32;36026;-65
2023/03/25 06:04:49;;;;;;;;;;;;;;;14.16;63.64;99663.38;5342930;32;34839;-64
2023/03/25 06:07:55;;;;;;;;;;;;;;;13.95;63.89;99663.00;5367986;32;35119;-74
2023/03/25 06:10:57;;;;;;;;;;;;;;;13.91;62.39;99653.59;5362721;32;35311;-76
2023/03/25 06:13:59;;;;;;;;;;;;;;;14.35;62.50;99663.03;5368934;32;34764;-64
2023/03/25 06:17:04;;;;;;;;;;;;;;;13.98;63.89;99667.25;5364661;32;35492;-77
2023/03/25 06:20:11;;;;;;;;;;;;;;;14.49;61.48;99660.38;5353796;32;34945;-77
2023/03/25 06:23:13;;;;;;;;;;;;;;;14.58;60.97;99667.69;5369630;32;44818;-76
2023/03/25 06:26:15;;;;;;;;;;;;;;;14.11;62.59;99646.16;5353817;32;34863;-77
2023/03/25 06:29:17;;;;;;;;;;;;;;;14.23;61.93;99658.56;5369896;32;34832;-65
2023/03/25 06:32:19;;;;;;;;;;;;;;;13.45;63.95;99659.13;5359135;32;35488;-64
2023/03/25 06:35:21;;;;;;;;;;;;;;;14.72;60.61;99655.31;5362862;32;35034;-78
2023/03/25 06:38:23;;;;;;;;;;;;;;;14.99;59.13;99665.81;5360047;32;34848;-65
2023/03/25 06:41:25;;;;;;;;;;;;;;;14.92;58.33;99670.69;5351056;32;35864;-73
2023/03/25 06:44:27;;;;;;;;;;;;;;;14.82;59.06;99664.34;5367712;32;35630;-64
2023/03/25 06:47:29;;;;;;;;;;;;;;;15.04;58.19;99669.00;5352315;32;35002;-67
2023/03/25 06:50:31;;;;;;;;;;;;;;;14.77;59.13;99674.38;5370270;32;35670;-66
2023/03/25 06:53:33;;;;;;;;;;;;;;;14.65;60.29;99676.06;5354628;32;37846;-64
2023/03/25 06:56:35;;;;;;;;;;;;;;;15.36;57.57;99678.19;5363719;32;34329;-66
2023/03/25 06:59:37;;;;;;;;;;;;;;;15.31;57.19;99682.13;5361345;32;35861;-65
2023/03/25 07:02:39;;;;;;;;;;;;;;;15.04;57.16;99679.59;5351833;32;44228;-64
2023/03/25 07:05:42;;;;;;;;;;;;;;;15.21;56.68;99686.38;5353426;32;34938;-66
2023/03/25 07:08:44;;;;;;;;;;;;;;;14.94;56.66;99682.03;5353643;32;34420;-77
2023/03/25 07:11:46;;;;;;;;;;;;;;;15.54;56.77;99686.66;5370241;32;35328;-78
2023/03/25 07:14:54;;;;;;;;;;;;;;;16.03;55.62;99687.59;5355867;32;34283;-65
2023/03/25 07:17:56;;;;;;;;;;;;;;;16.25;52.96;99677.16;5359847;32;34860;-73
2023/03/25 07:20:58;;;;;;;;;;;;;;;16.43;52.71;99669.62;5364910;32;35106;-65
2023/03/25 07:24:00;;;;;;;;;;;;;;;16.87;51.44;99684.88;5354375;32;35152;-77
2023/03/25 07:27:02;;;;;;;;;;;;;;;17.08;50.19;99694.81;5375981;32;35016;-65
2023/03/25 07:30:04;;;;;;;;;;;;;;;16.72;50.90;99694.00;5354603;32;35071;-79
2023/03/25 07:33:07;;;;;;;;;;;;;;;16.74;51.91;99705.34;5372313;32;34963;-78
2023/03/25 07:36:10;;;;;;;;;;;;;;;15.86;53.26;99697.66;5355385;32;45642;-66
2023/03/25 07:39:11;;;;;;;;;;;;;;;17.13;49.42;99700.59;5360680;32;34904;-65
2023/03/25 07:42:14;;;;;;;;;;;;;;;17.35;49.74;99695.34;5369140;32;35683;-67
2023/03/25 07:45:16;;;;;;;;;;;;;;;17.82;48.29;99696.06;5354043;32;34866;-78
2023/03/25 07:48:18;;;;;;;;;;;;;;;17.68;47.85;99701.63;5372134;32;35548;-79
2023/03/25 07:51:20;;;;;;;;;;;;;;;17.22;48.83;99700.75;5362777;32;35328;-78
2023/03/25 07:54:23;;;;;;;;;;;;;;;17.51;48.56;99703.78;5371691;32;35498;-66
2023/03/25 07:57:25;;;;;;;;;;;;;;;17.30;49.17;99697.50;5356789;32;34567;-67
2023/03/25 08:00:30;;;;;;;;;;;;;;;17.30;48.30;99703.66;5360508;32;35085;-64
2023/03/25 08:03:33;;;;;;;;;;;;;;;17.38;47.56;99700.41;5363692;32;35539;-80
2023/03/25 08:06:36;;;;;;;;;;;;;;;16.54;49.22;99704.16;5343953;32;35533;-66
2023/03/25 08:09:40;;;;;;;;;;;;;;;16.57;49.11;99698.63;5373343;32;43848;-66
2023/03/25 08:12:42;;;;;;;;;;;;;;;17.86;45.87;99674.44;5359402;32;34767;-78
2023/03/25 08:15:44;;;;;;;;;;;;;;;18.62;44.47;99699.25;5368657;32;35380;-66
2023/03/25 08:18:46;;;;;;;;;;;;;;;18.98;43.42;99698.97;5360086;32;34400;-80
2023/03/25 08:21:49;;;;;;;;;;;;;;;18.53;43.72;99700.00;5356638;32;35055;-65
2023/03/25 08:24:51;;;;;;;;;;;;;;;16.99;47.44;99696.34;5373408;32;35381;-78
2023/03/25 08:27:53;;;;;;;;;;;;;;;17.09;47.31;99693.84;5353103;32;35267;-65
2023/03/25 08:30:55;;;;;;;;;;;;;;;15.97;48.86;99683.59;5372142;32;34800;-77
2023/03/25 08:33:57;;;;;;;;;;;;;;;16.38;49.17;99693.00;5357613;32;34726;-73
2023/03/25 08:36:59;;;;;;;;;;;;;;;17.06;46.94;99690.44;5371303;32;35409;-79
2023/03/25 08:40:06;;;;;;;;;;;;;;;15.69;49.83;99690.03;5358677;32;35001;-65
2023/03/25 08:43:08;;;;;;;;;;;;;;;17.31;46.45;99694.72;5351893;32;32932;-77
2023/03/25 08:46:09;;;;;;;;;;;;;;;16.61;47.12;99689.47;5369707;32;45823;-78
2023/03/25 08:49:12;;;;;;;;;;;;;;;17.74;44.74;99691.38;5357006;32;35485;-65
2023/03/25 08:52:15;;;;;;;;;;;;;;;18.37;42.74;99665.84;5371760;32;34873;-77
2023/03/25 08:55:17;;;;;;;;;;;;;;;18.01;43.02;99674.16;5343492;32;34841;-65
2023/03/25 08:58:21;;;;;;;;;;;;;;;18.94;42.72;99674.44;5368627;32;36134;-78
2023/03/25 09:01:23;;;;;;;;;;;;;;;19.40;40.71;99665.97;5360392;32;34842;-66
2023/03/25 09:04:25;;;;;;;;;;;;;;;20.63;37.68;99661.22;5342396;32;34469;-67
2023/03/25 09:07:28;;;;;;;;;;;;;;;21.35;36.02;99665.16;5366596;32;36001;-66
2023/03/25 09:10:30;;;;;;;;;;;;;;;21.19;37.56;99660.41;5356092;32;35537;-66
2023/03/25 09:13:32;;;;;;;;;;;;;;;20.01;38.05;99670.41;5370709;32;35060;-67
2023/03/25 09:16:34;;;;;;;;;;;;;;;20.92;36.73;99641.63;5357737;32;35680;-77
2023/03/25 09:19:37;;;;;;;;;;;;;;;20.88;37.04;99667.78;5367871;32;34627;-66
2023/03/25 09:22:39;;;;;;;;;;;;;;;21.32;36.04;99673.47;5348116;32;44717;-67
2023/03/25 09:25:41;;;;;;;;;;;;;;;22.11;34.41;99662.28;5354466;32;36023;-66
2023/03/25 09:28:43;;;;;;;;;;;;;;;21.67;35.06;99670.09;5372054;32;35525;-67
2023/03/25 09:31:45;;;;;;;;;;;;;;;22.75;33.80;99660.34;5358974;32;35650;-77
2023/03/25 09:34:47;;;;;;;;;;;;;;;22.31;33.54;99658.44;5372505;32;34197;-66
2023/03/25 09:37:49;;;;;;;;;;;;;;;23.67;31.79;99657.09;5357374;32;36497;-73
2023/03/25 09:40:53;;;;;;;;;;;;;;;21.57;34.38;99635.34;5364095;32;35208;-67
2023/03/25 09:44:15;;;;;;;;;;;;;;;21.12;35.72;99655.75;5357521;32;34854;-65
2023/03/25 09:47:18;;;;;;;;;;;;;;;23.16;32.25;99651.59;5344658;32;45262;-77
2023/03/25 09:50:21;;;;;;;;;;;;;;;22.48;33.30;99662.12;5370981;32;34290;-67
2023/03/25 09:53:28;;;;;;;;;;;;;;;21.62;34.05;99662.50;5355932;32;34919;-73
2023/03/25 09:56:30;;;;;;;;;;;;;;;24.10;29.64;99648.00;5356532;32;35084;-66
2023/03/25 09:59:32;;;;;;;;;;;;;;;23.73;29.75;99657.28;5355246;32;35506;-77
2023/03/25 10:02:36;;;;;;;;;;;;;;;23.66;29.16;99656.25;5355552;32;34903;-78
2023/03/25 10:05:57;;;;;;;;;;;;;;;21.73;33.78;99668.66;5355329;32;44372;-66
2023/03/25 10:08:59;;;;;;;;;;;;;;;20.69;34.30;99668.66;5356472;32;35243;-66
2023/03/25 10:12:01;;;;;;;;;;;;;;;19.29;37.29;99673.22;5368717;32;34988;-65
2023/03/25 10:15:09;;;;;;;;;;;;;;;20.81;34.44;99674.69;5355795;32;35075;-66
2023/03/25 10:18:11;;;;;;;;;;;;;;;20.00;35.71;99684.72;5361902;32;44609;-66
2023/03/25 10:21:22;;;;;;;;;;;;;;;19.89;36.22;99675.00;5372652;32;35179;-76
2023/03/25 10:24:26;;;;;;;;;;;;;;;20.39;35.72;99653.59;5361104;32;34905;-67
2023/03/25 10:27:31;;;;;;;;;;;;;;;22.16;32.33;99655.47;5372533;32;35600;-66
2023/03/25 10:30:34;;;;;;;;;;;;;;;21.49;33.90;99666.50;5359570;32;37030;-80
2023/03/25 10:33:36;;;;;;;;;;;;;;;19.46;36.24;99661.94;5368927;32;36294;-76
2023/03/25 10:36:44;;;;;;;;;;;;;;;19.37;36.89;99670.72;5357307;32;43119;-67
2023/03/25 10:39:46;;;;;;;;;;;;;;;19.67;36.64;99669.91;5352792;32;34900;-77
2023/03/25 10:42:54;;;;;;;;;;;;;;;18.23;40.07;99684.75;5367711;32;34926;-78
2023/03/25 10:46:00;;;;;;;;;;;;;;;18.53;39.88;99688.50;5353440;32;35043;-66
2023/03/25 10:49:02;;;;;;;;;;;;;;;19.20;38.43;99685.50;5369250;32;35757;-66
2023/03/25 10:52:04;;;;;;;;;;;;;;;18.53;39.85;99678.69;5356278;32;34846;-67
2023/03/25 10:55:08;;;;;;;;;;;;;;;19.19;38.88;99674.03;5363727;32;35446;-77
2023/03/25 10:58:12;;;;;;;;;;;;;;;18.63;39.52;99670.81;5361665;32;45261;-66
2023/03/25 11:01:16;;;;;;;;;;;;;;;19.17;38.38;99667.13;5353640;32;34701;-66
2023/03/25 11:04:19;;;;;;;;;;;;;;;20.74;34.04;99649.53;5343906;32;35206;-78
2023/03/25 11:07:23;;;;;;;;;;;;;;;19.86;35.11;99666.44;5350483;32;35573;-67
2023/03/25 11:10:26;;;;;;;;;;;;;;;19.75;34.64;99672.72;5358336;32;35004;-68
2023/03/25 11:13:29;;;;;;;;;;;;;;;20.15;34.54;99658.47;5356195;32;35221;-66
2023/03/25 11:16:47;;;;;;;;;;;;;;;19.51;35.16;99665.03;5359971;32;34938;-66
2023/03/25 11:19:54;;;;;;;;;;;;;;;19.47;35.13;99671.63;5358925;32;35052;-65
2023/03/25 11:23:00;;;;;;;;;;;;;;;19.05;36.04;99686.81;5357420;32;34831;-68
2023/03/25 11:26:07;;;;;;;;;;;;;;;18.99;36.23;99666.03;5373333;32;34870;-67
2023/03/25 11:29:13;;;;;;;;;;;;;;;18.47;37.26;99683.69;5355964;32;46781;-78
2023/03/25 11:32:15;;;;;;;;;;;;;;;18.35;37.60;99690.88;5364516;32;36522;-79
2023/03/25 11:35:21;;;;;;;;;;;;;;;17.98;39.54;99680.59;5365702;32;34621;-66
2023/03/25 11:38:23;;;;;;;;;;;;;;;18.87;38.27;99674.09;5356601;32;37368;-74
2023/03/25 11:41:29;;;;;;;;;;;;;;;18.27;37.43;99680.87;5370581;32;36569;-73
2023/03/25 11:44:31;;;;;;;;;;;;;;;18.31;37.74;99676.16;5353599;32;35297;-67
2023/03/25 11:47:37;;;;;;;;;;;;;;;17.24;39.98;99682.88;5371416;32;35005;-77
2023/03/25 11:50:43;;;;;;;;;;;;;;;17.43;39.87;99692.06;5357946;32;45489;-66
2023/03/25 11:53:46;;;;;;;;;;;;;;;17.04;38.35;99675.63;5358461;32;35559;-66
2023/03/25 11:56:48;;;;;;;;;;;;;;;17.45;38.18;99690.13;5369272;32;37552;-66
2023/03/25 11:59:57;;;;;;;;;;;;;;;18.35;36.17;99678.44;5357354;32;34627;-73
2023/03/25 12:03:05;;;;;;;;;;;;;;;18.19;36.70;99687.78;5372871;32;34902;-79
2023/03/25 12:06:10;;;;;;;;;;;;;;;18.48;35.59;99693.34;5337665;32;34534;-66
2023/03/25 12:09:12;;;;;;;;;;;;;;;18.40;35.95;99688.69;5366134;32;44752;-78
2023/03/25 12:12:15;;;;;;;;;;;;;;;18.83;34.81;99691.31;5359959;32;35495;-66
2023/03/25 12:15:20;;;;;;;;;;;;;;;18.23;35.54;99698.06;5355737;32;35287;-72
2023/03/25 12:18:30;;;;;;;;;;;;;;;17.73;36.02;99684.38;5372613;32;35472;-67
2023/03/25 12:21:35;;;;;;;;;;;;;;;17.37;36.68;99684.59;5355746;32;34888;-65
2023/03/25 12:24:54;;;;;;;;;;;;;;;16.86;38.01;99687.63;5385169;32;34054;-65
2023/03/25 12:28:16;;;;;;;;;;;;;;;17.87;36.47;99689.44;5359280;32;35115;-66
2023/03/25 12:31:37;;;;;;;;;;;;;;;17.61;36.27;99674.69;5356272;32;34872;-64
2023/03/25 12:34:39;;;;;;;;;;;;;;;17.95;35.39;99682.63;5371114;32;44636;-66
2023/03/25 12:37:59;;;;;;;;;;;;;;;17.14;36.16;99676.62;5355649;32;34236;-79
2023/03/25 12:41:07;;;;;;;;;;;;;;;17.15;36.51;99670.34;5365836;32;33352;-77
2023/03/25 12:44:13;;;;;;;;;;;;;;;17.14;35.80;99665.16;5359882;32;45855;-77
2023/03/25 12:47:15;;;;;;;;;;;;;;;17.55;35.23;99649.44;5354827;32;35447;-77
2023/03/25 12:50:26;;;;;;;;;;;;;;;18.01;34.39;99645.75;5372727;32;35053;-78
2023/03/25 12:53:31;;;;;;;;;;;;;;;18.92;33.14;99642.59;5355655;32;34286;-78
2023/03/25 12:56:33;;;;;;;;;;;;;;;20.49;30.74;99624.28;5370383;32;35401;-66
2023/03/25 12:59:54;;;;;;;;;;;;;;;19.62;31.63;99630.31;5358670;32;34534;-65
2023/03/25 13:03:15;;;;;;;;;;;;;;;19.57;31.35;99631.66;5356367;32;35500;-65
2023/03/25 13:06:17;;;;;;;;;;;;;;;18.33;32.93;99639.62;5347750;32;48217;-65
2023/03/25 13:09:22;;;;;;;;;;;;;;;19.12;31.79;99629.38;5357699;32;35070;-65
2023/03/25 13:12:30;;;;;;;;;;;;;;;18.76;32.10;99626.25;5370817;32;33840;-64
2023/03/25 13:15:34;;;;;;;;;;;;;;;16.99;35.41;99640.63;5357162;32;35178;-65
2023/03/25 13:18:38;;;;;;;;;;;;;;;17.18;34.99;99632.91;5356493;32;34378;-64
2023/03/25 13:21:45;;;;;;;;;;;;;;;18.18;33.61;99632.91;5370237;32;44917;-64
2023/03/25 13:24:51;;;;;;;;;;;;;;;18.15;32.84;99623.34;5354334;32;35802;-71
2023/03/25 13:27:55;;;;;;;;;;;;;;;18.46;32.36;99620.81;5369499;32;35263;-65
2023/03/25 13:30:57;;;;;;;;;;;;;;;18.99;31.31;99620.75;5354291;32;34580;-64
2023/03/25 13:34:10;;;;;;;;;;;;;;;18.65;31.56;99623.62;5368464;32;34506;-73
2023/03/25 13:37:18;;;;;;;;;;;;;;;18.02;32.81;99630.66;5363136;32;44761;-76
2023/03/25 13:40:26;;;;;;;;;;;;;;;17.19;34.14;99637.25;5353212;32;35420;-73
2023/03/25 13:43:31;;;;;;;;;;;;;;;18.05;32.72;99633.91;5369564;32;34888;-65
2023/03/25 13:46:35;;;;;;;;;;;;;;;17.88;33.29;99629.13;5352377;32;35000;-65
2023/03/25 13:49:41;;;;;;;;;;;;;;;17.69;33.73;99613.78;5370537;32;35132;-66
2023/03/25 13:52:45;;;;;;;;;;;;;;;18.05;33.43;99627.75;5355908;32;44669;-64
2023/03/25 13:55:56;;;;;;;;;;;;;;;18.09;32.85;99627.34;5355287;32;34943;-76
2023/03/25 13:59:17;;;;;;;;;;;;;;;18.67;31.49;99622.53;5372574;32;34221;-72
2023/03/25 14:02:26;;;;;;;;;;;;;;;18.16;32.04;99619.72;5353943;32;34981;-78
2023/03/25 14:05:31;;;;;;;;;;;;;;;17.00;34.17;99634.34;5348831;32;34859;-76
2023/03/25 14:08:33;;;;;;;;;;;;;;;16.91;34.32;99643.03;5357389;32;35756;-76
2023/03/25 14:11:35;;;;;;;;;;;;;;;16.99;34.36;99638.81;5330862;32;852447;-77
2023/03/25 14:14:39;;;;;;;;;;;;;;;16.90;34.82;99641.34;5370598;32;35212;-77
2023/03/25 14:17:41;;;;;;;;;;;;;;;17.06;34.62;99647.12;5353245;32;44704;-78
2023/03/25 14:20:43;;;;;;;;;;;;;;;16.89;35.13;99644.97;5371206;32;34591;-66
2023/03/25 14:23:46;;;;;;;;;;;;;;;16.89;35.49;99639.66;5354189;32;34896;-65
2023/03/25 14:26:52;;;;;;;;;;;;;;;17.24;35.00;99635.09;5368513;32;35654;-65
2023/03/25 14:29:55;;;;;;;;;;;;;;;17.11;35.54;99634.34;5356894;32;35760;-64
2023/03/25 14:32:57;;;;;;;;;;;;;;;18.23;33.64;99622.75;5354169;32;35250;-65
2023/03/25 14:35:59;;;;;;;;;;;;;;;17.66;34.19;99629.16;5371206;32;34912;-76
2023/03/25 14:39:05;;;;;;;;;;;;;;;17.49;34.20;99622.53;5354968;32;35224;-64
2023/03/25 14:42:07;;;;;;;;;;;;;;;17.83;33.68;99628.66;5363318;32;35100;-79
2023/03/25 14:45:32;;;;;;;;;;;;;;;17.09;34.82;99624.84;5352036;32;43521;-76
2023/03/25 14:48:36;;;;;;;;;;;;;;;17.38;34.77;99627.84;5357766;32;34585;-76
2023/03/25 14:51:39;;;;;;;;;;;;;;;17.83;33.92;99621.50;5373727;32;44097;-65
2023/03/25 14:54:43;;;;;;;;;;;;;;;17.23;35.22;99635.22;5355366;32;34407;-77
2023/03/25 14:57:45;;;;;;;;;;;;;;;17.22;35.23;99631.72;5369274;32;34970;-77
2023/03/25 15:01:04;;;;;;;;;;;;;;;17.80;34.02;99624.44;5340608;32;34445;-64
2023/03/25 15:04:10;;;;;;;;;;;;;;;17.02;35.06;99629.78;5355492;32;35282;-64
2023/03/25 15:07:15;;;;;;;;;;;;;;;17.05;34.82;99625.06;5349311;32;47337;-66
2023/03/25 15:10:29;;;;;;;;;;;;;;;16.41;35.92;99623.81;5352699;32;36547;-75
2023/03/25 15:13:36;;;;;;;;;;;;;;;16.75;35.13;99633.59;5370273;32;35440;-63
2023/03/25 15:16:38;;;;;;;;;;;;;;;16.02;36.55;99640.88;5356711;32;46457;-65
2023/03/25 15:20:09;;;;;;;;;;;;;;;16.61;35.30;99625.78;5368809;32;34994;-64
2023/03/25 15:23:17;;;;;;;;;;;;;;;16.53;35.48;99633.50;5359842;32;46327;-76
2023/03/25 15:26:36;;;;;;;;;;;;;;;16.51;35.16;99643.37;5354286;32;35557;-77
2023/03/25 15:29:41;;;;;;;;;;;;;;;17.02;34.29;99635.09;5368128;32;45115;-65
2023/03/25 15:32:43;;;;;;;;;;;;;;;16.27;35.13;99632.78;5352927;32;35173;-77
2023/03/25 15:35:57;;;;;;;;;;;;;;;16.11;34.91;99619.84;5365139;32;36074;-77
2023/03/25 15:39:00;;;;;;;;;;;;;;;16.65;34.60;99637.88;5359539;32;34570;-77
2023/03/25 15:42:11;;;;;;;;;;;;;;;16.59;33.92;99640.97;5349844;32;34915;-76
2023/03/25 15:45:19;;;;;;;;;;;;;;;16.89;33.78;99645.81;5367116;32;44756;-77
2023/03/25 15:48:40;;;;;;;;;;;;;;;17.42;32.99;99645.22;5353941;32;35496;-74
2023/03/25 15:51:41;;;;;;;;;;;;;;;16.61;33.71;99630.25;5364803;32;44634;-77
2023/03/25 15:54:44;;;;;;;;;;;;;;;17.05;33.35;99626.87;5359637;32;34649;-64
2023/03/25 15:57:46;;;;;;;;;;;;;;;16.42;34.01;99630.78;5354988;32;35157;-64
2023/03/25 16:00:49;;;;;;;;;;;;;;;16.66;33.70;99628.09;5370471;32;34962;-65
2023/03/25 16:04:05;;;;;;;;;;;;;;;16.43;33.96;99613.94;5344938;32;33496;-65